createdAt,value
2022-09-14T00:00:30.406Z,5.4
2022-09-14T00:01:46.692Z,5.7
2022-09-14T00:03:02.973Z,5.7
2022-09-14T00:04:19.271Z,6.3
2022-09-14T00:05:35.556Z,5.2
2022-09-14T00:06:51.860Z,5.5
2022-09-14T00:08:08.153Z,5.3
2022-09-14T00:09:24.449Z,5.5
2022-09-14T00:10:40.727Z,5.5
2022-09-14T00:11:57.023Z,5.9
2022-09-14T00:13:13.321Z,5.4
2022-09-14T00:14:29.613Z,5.4
2022-09-14T00:15:45.918Z,5.2
2022-09-14T00:17:01.208Z,5.9
2022-09-14T00:18:17.519Z,5.5
2022-09-14T00:19:33.796Z,5.6
2022-09-14T00:20:50.099Z,5.7
2022-09-14T00:22:06.376Z,6.4
2022-09-14T00:23:22.686Z,5.8
2022-09-14T00:24:38.970Z,5.4
2022-09-14T00:25:55.267Z,5.5
2022-09-14T00:27:11.573Z,5.4
2022-09-14T00:28:27.844Z,5.9
2022-09-14T00:29:44.143Z,5.8
2022-09-14T00:31:00.430Z,6.4
2022-09-14T00:32:16.728Z,5.5
2022-09-14T00:33:32.027Z,5.7
2022-09-14T00:34:48.335Z,5.4
2022-09-14T00:36:04.626Z,6.1
2022-09-14T00:37:20.930Z,5.5
2022-09-14T00:38:37.201Z,6.3
2022-09-14T00:39:53.518Z,5.5
2022-09-14T00:41:08.812Z,6.2
2022-09-14T00:42:25.107Z,6.3
2022-09-14T00:43:41.401Z,5.5
2022-09-14T00:44:57.690Z,6.4
2022-09-14T00:46:13.995Z,6.1
2022-09-14T00:47:30.275Z,5.5
2022-09-14T00:48:46.571Z,5.8
2022-09-14T00:50:02.878Z,5.8
2022-09-14T00:51:19.150Z,6.7
2022-09-14T00:52:35.458Z,6.5
2022-09-14T00:53:51.747Z,5.7
2022-09-14T00:55:08.042Z,5.3
2022-09-14T00:56:24.320Z,5.1
2022-09-14T00:57:39.632Z,5.4
2022-09-14T00:58:55.938Z,5.5
2022-09-14T01:00:12.217Z,5.5
2022-09-14T01:01:28.520Z,5.3
2022-09-14T01:02:44.799Z,5.6
2022-09-14T01:04:01.100Z,5.1
2022-09-14T01:05:17.402Z,5.4
2022-09-14T01:06:33.686Z,5.1
2022-09-14T01:07:49.970Z,5
2022-09-14T01:09:06.265Z,5.3
2022-09-14T01:10:22.560Z,5.3
2022-09-14T01:11:38.857Z,5.8
2022-09-14T01:12:55.166Z,5.8
2022-09-14T01:14:10.456Z,5.5
2022-09-14T01:15:26.756Z,4.9
2022-09-14T01:16:43.039Z,5.2
2022-09-14T01:17:59.343Z,5.1
2022-09-14T01:19:15.626Z,5.2
2022-09-14T01:20:31.918Z,5.1
2022-09-14T01:21:48.213Z,5.7
2022-09-14T01:23:04.502Z,5.3
2022-09-14T01:24:20.804Z,5.2
2022-09-14T01:25:37.103Z,5.5
2022-09-14T01:26:53.389Z,5.1
2022-09-14T01:28:09.677Z,5.3
2022-09-14T01:29:25.966Z,5.4
2022-09-14T01:30:41.274Z,5.7
2022-09-14T01:31:57.577Z,6.1
2022-09-14T01:33:13.860Z,5.2
2022-09-14T01:34:30.164Z,5
2022-09-14T01:35:46.462Z,5.7
2022-09-14T01:37:02.750Z,5.7
2022-09-14T01:38:19.036Z,5.2
2022-09-14T01:39:35.328Z,5.2
2022-09-14T01:40:51.629Z,5.4
2022-09-14T01:42:07.907Z,5.9
2022-09-14T01:43:24.207Z,5.6
2022-09-14T01:44:40.508Z,6
2022-09-14T01:45:56.798Z,6.4
2022-09-14T01:47:12.096Z,6.3
2022-09-14T01:48:28.398Z,7.2
2022-09-14T01:49:44.695Z,6.5
2022-09-14T01:51:00.989Z,7.6
2022-09-14T01:52:17.270Z,7.4
2022-09-14T01:53:33.571Z,7
2022-09-14T01:54:49.846Z,7.1
2022-09-14T01:56:06.144Z,7.7
2022-09-14T01:57:22.443Z,7.5
2022-09-14T01:58:38.727Z,7.6
2022-09-14T01:59:55.035Z,8
2022-09-14T02:01:11.321Z,7.6
2022-09-14T02:02:27.602Z,7.6
2022-09-14T02:03:42.934Z,8.2
2022-09-14T02:04:59.203Z,8.1
2022-09-14T02:06:15.519Z,7.7
2022-09-14T02:07:31.800Z,8.1
2022-09-14T02:08:48.094Z,8
2022-09-14T02:10:04.374Z,7.8
2022-09-14T02:11:20.664Z,7.9
2022-09-14T02:12:36.965Z,7.3
2022-09-14T02:13:53.267Z,8.5
2022-09-14T02:15:09.543Z,7.6
2022-09-14T02:16:25.833Z,7.8
2022-09-14T02:17:42.132Z,8.3
2022-09-14T02:18:58.421Z,7.9
2022-09-14T02:20:13.737Z,6.8
2022-09-14T02:21:30.033Z,7.4
2022-09-14T02:22:46.000Z,6.9
2022-09-14T02:24:02.609Z,7.6
2022-09-14T02:25:18.912Z,6.5
2022-09-14T02:26:35.201Z,6.7
2022-09-14T02:27:51.487Z,7.2
2022-09-14T02:29:07.786Z,6.5
2022-09-14T02:30:24.087Z,6.7
2022-09-14T02:31:40.362Z,6.9
2022-09-14T02:32:56.661Z,6.9
2022-09-14T02:34:12.957Z,6.6
2022-09-14T02:35:29.249Z,6.7
2022-09-14T02:36:44.560Z,6.5
2022-09-14T02:38:00.846Z,6.8
2022-09-14T02:39:17.148Z,6.3
2022-09-14T02:40:33.437Z,6.4
2022-09-14T02:41:49.726Z,6.7
2022-09-14T02:43:06.020Z,6.3
2022-09-14T02:44:22.311Z,6.7
2022-09-14T02:45:38.591Z,6.2
2022-09-14T02:46:54.887Z,6.1
2022-09-14T02:48:11.187Z,6
2022-09-14T02:49:27.470Z,6.5
2022-09-14T02:50:43.761Z,6.7
2022-09-14T02:52:00.068Z,6.5
2022-09-14T02:53:15.365Z,6
2022-09-14T02:54:31.669Z,6.2
2022-09-14T02:55:47.955Z,6.4
2022-09-14T02:57:04.269Z,7
2022-09-14T02:58:20.538Z,6.4
2022-09-14T02:59:36.827Z,6.4
2022-09-14T03:00:53.129Z,6.1
2022-09-14T03:02:09.429Z,6.2
2022-09-14T03:03:25.703Z,6.9
2022-09-14T03:04:42.016Z,6.4
2022-09-14T03:05:58.302Z,6.4
2022-09-14T03:07:14.602Z,6.4
2022-09-14T03:08:30.893Z,6.5
2022-09-14T03:09:46.182Z,6.5
2022-09-14T03:11:02.487Z,5.8
2022-09-14T03:12:18.774Z,6.4
2022-09-14T03:13:35.077Z,6.5
2022-09-14T03:14:51.366Z,6.2
2022-09-14T03:16:07.661Z,6.2
2022-09-14T03:17:23.942Z,6.2
2022-09-14T03:18:40.240Z,6.2
2022-09-14T03:19:56.524Z,6
2022-09-14T03:21:12.827Z,6.1
2022-09-14T03:22:29.114Z,6
2022-09-14T03:23:45.415Z,5.9
2022-09-14T03:25:01.693Z,5.6
2022-09-14T03:26:17.016Z,5.9
2022-09-14T03:27:33.307Z,5.7
2022-09-14T03:28:49.600Z,5.7
2022-09-14T03:30:05.884Z,5.7
2022-09-14T03:31:22.174Z,5.6
2022-09-14T03:32:38.485Z,5.4
2022-09-14T03:33:54.762Z,6.1
2022-09-14T03:35:11.051Z,5.5
2022-09-14T03:36:27.342Z,5
2022-09-14T03:37:43.634Z,5.1
2022-09-14T03:38:59.946Z,5.1
2022-09-14T03:40:16.233Z,5
2022-09-14T03:41:32.513Z,5.5
2022-09-14T03:42:47.833Z,4.8
2022-09-14T03:44:04.132Z,4.6
2022-09-14T03:45:20.415Z,4.7
2022-09-14T03:46:36.698Z,4.5
2022-09-14T03:47:53.011Z,4.6
2022-09-14T03:49:09.291Z,4.6
2022-09-14T03:50:25.584Z,4.5
2022-09-14T03:51:41.874Z,4.2
2022-09-14T03:52:58.160Z,4.3
2022-09-14T03:54:14.470Z,4.1
2022-09-14T03:55:30.760Z,4.6
2022-09-14T03:56:47.040Z,4.4
2022-09-14T03:58:03.332Z,4
2022-09-14T03:59:18.652Z,4
2022-09-14T04:00:34.938Z,3.8
2022-09-14T04:01:51.229Z,4
2022-09-14T04:03:07.540Z,4.3
2022-09-14T04:04:23.820Z,3.9
2022-09-14T04:05:40.112Z,3.9
2022-09-14T04:06:56.410Z,3.6
2022-09-14T04:08:12.700Z,4.1
2022-09-14T04:09:28.992Z,4.1
2022-09-14T04:10:45.287Z,3.5
2022-09-14T04:12:01.566Z,3.6
2022-09-14T04:13:17.867Z,3.9
2022-09-14T04:14:34.173Z,4.1
2022-09-14T04:15:49.471Z,3.3
2022-09-14T04:17:05.756Z,3.5
2022-09-14T04:18:22.055Z,3.6
2022-09-14T04:19:38.344Z,4
2022-09-14T04:20:54.646Z,3.7
2022-09-14T04:22:10.943Z,3.5
2022-09-14T04:23:27.176Z,3.4
2022-09-14T04:24:43.476Z,3.3
2022-09-14T04:25:59.713Z,3.5
2022-09-14T04:27:15.952Z,3.3
2022-09-14T04:28:32.206Z,3.7
2022-09-14T04:29:48.475Z,3.4
2022-09-14T04:31:04.778Z,3.2
2022-09-14T04:32:20.043Z,3
2022-09-14T04:33:36.273Z,3.5
2022-09-14T04:34:52.532Z,3.4
2022-09-14T04:36:08.785Z,3.3
2022-09-14T04:37:25.007Z,3.4
2022-09-14T04:38:41.240Z,3.3
2022-09-14T04:39:57.492Z,3.4
2022-09-14T04:41:13.739Z,3.5
2022-09-14T04:42:29.968Z,3.4
2022-09-14T04:43:46.211Z,3.2
2022-09-14T04:45:02.440Z,3.1
2022-09-14T04:46:18.688Z,3.1
2022-09-14T04:47:34.916Z,3.4
2022-09-14T04:48:50.164Z,3.1
2022-09-14T04:50:06.402Z,3.5
2022-09-14T04:51:22.643Z,3
2022-09-14T04:52:38.883Z,3.2
2022-09-14T04:53:55.126Z,3.5
2022-09-14T04:55:11.367Z,3.3
2022-09-14T04:56:26.613Z,3.1
2022-09-14T04:57:42.870Z,3.4
2022-09-14T04:58:59.097Z,3.6
2022-09-14T05:00:15.347Z,3.6
2022-09-14T05:01:31.576Z,3.5
2022-09-14T05:02:47.823Z,3.8
2022-09-14T05:04:04.062Z,3.9
2022-09-14T05:05:20.304Z,3.5
2022-09-14T05:06:36.531Z,4.4
2022-09-14T05:07:52.774Z,3.4
2022-09-14T05:09:09.010Z,3.6
2022-09-14T05:10:25.264Z,3.7
2022-09-14T05:11:41.475Z,3.5
2022-09-14T05:12:56.755Z,3.8
2022-09-14T05:14:12.981Z,3.5
2022-09-14T05:15:29.224Z,3.2
2022-09-14T05:16:45.449Z,3.4
2022-09-14T05:18:01.711Z,3.3
2022-09-14T05:19:17.932Z,3.5
2022-09-14T05:20:34.181Z,3.5
2022-09-14T05:21:50.409Z,3.6
2022-09-14T05:23:06.666Z,3.3
2022-09-14T05:24:22.903Z,3.3
2022-09-14T05:25:39.128Z,3.3
2022-09-14T05:26:55.368Z,3.2
2022-09-14T05:28:11.606Z,3.2
2022-09-14T05:29:26.859Z,3.4
2022-09-14T05:30:43.114Z,3.3
2022-09-14T05:31:59.339Z,2.8
2022-09-14T05:33:15.586Z,3.1
2022-09-14T05:34:31.828Z,3
2022-09-14T05:35:48.052Z,2.9
2022-09-14T05:37:04.306Z,3.1
2022-09-14T05:38:20.536Z,3
2022-09-14T05:39:36.771Z,3.3
2022-09-14T05:40:53.006Z,2.9
2022-09-14T05:42:09.246Z,3.2
2022-09-14T05:43:25.500Z,3
2022-09-14T05:44:41.723Z,3.2
2022-09-14T05:45:56.986Z,3.4
2022-09-14T05:47:13.220Z,3.2
2022-09-14T05:48:29.453Z,3
2022-09-14T05:49:45.712Z,2.8
2022-09-14T05:51:01.944Z,3.2
2022-09-14T05:52:18.174Z,3.1
2022-09-14T05:53:34.414Z,3.1
2022-09-14T05:54:50.640Z,3.2
2022-09-14T05:56:06.895Z,3.2
2022-09-14T05:57:23.118Z,3.2
2022-09-14T05:58:39.363Z,3.2
2022-09-14T05:59:55.608Z,3.5
2022-09-14T06:01:11.848Z,3.1
2022-09-14T06:02:27.094Z,2.8
2022-09-14T06:03:43.347Z,3.2
2022-09-14T06:04:59.570Z,3.2
2022-09-14T06:06:15.827Z,2.7
2022-09-14T06:07:32.061Z,3.1
2022-09-14T06:08:48.292Z,2.9
2022-09-14T06:10:04.529Z,2.8
2022-09-14T06:11:20.785Z,2.8
2022-09-14T06:12:37.010Z,3
2022-09-14T06:13:53.248Z,2.7
2022-09-14T06:15:09.480Z,2.6
2022-09-14T06:16:25.725Z,3.2
2022-09-14T06:17:41.961Z,2.5
2022-09-14T06:18:57.213Z,2.7
2022-09-14T06:20:13.452Z,2.6
2022-09-14T06:21:29.698Z,2.6
2022-09-14T06:22:45.929Z,2.6
2022-09-14T06:24:02.173Z,2.8
2022-09-14T06:25:18.403Z,2.9
2022-09-14T06:26:34.653Z,3
2022-09-14T06:27:50.880Z,2.9
2022-09-14T06:29:07.142Z,3
2022-09-14T06:30:23.365Z,3.4
2022-09-14T06:31:39.601Z,3.1
2022-09-14T06:32:55.847Z,3
2022-09-14T06:34:12.075Z,2.8
2022-09-14T06:35:27.337Z,3.1
2022-09-14T06:36:43.583Z,3.4
2022-09-14T06:37:59.822Z,3.3
2022-09-14T06:39:16.068Z,3.2
2022-09-14T06:40:32.306Z,3.4
2022-09-14T06:41:48.527Z,3.4
2022-09-14T06:43:04.777Z,3
2022-09-14T06:44:21.015Z,3.3
2022-09-14T06:45:37.253Z,3.3
2022-09-14T06:46:53.485Z,3.3
2022-09-14T06:48:09.730Z,3.2
2022-09-14T06:49:25.970Z,3.1
2022-09-14T06:50:42.203Z,3.1
2022-09-14T06:51:57.466Z,2.9
2022-09-14T06:53:13.708Z,3.3
2022-09-14T06:54:29.944Z,3
2022-09-14T06:55:46.170Z,3
2022-09-14T06:57:02.421Z,3
2022-09-14T06:58:18.645Z,2.8
2022-09-14T06:59:34.883Z,2.9
2022-09-14T07:00:51.131Z,3.3
2022-09-14T07:02:07.373Z,3.1
2022-09-14T07:03:23.609Z,2.6
2022-09-14T07:04:39.844Z,3.2
2022-09-14T07:05:56.083Z,2.8
2022-09-14T07:07:12.327Z,2.9
2022-09-14T07:08:27.561Z,3
2022-09-14T07:09:43.822Z,2.9
2022-09-14T07:11:00.045Z,3.2
2022-09-14T07:12:16.285Z,3.1
2022-09-14T07:13:32.516Z,3.9
2022-09-14T07:14:48.775Z,2.9
2022-09-14T07:16:04.998Z,3.2
2022-09-14T07:17:21.252Z,3.4
2022-09-14T07:18:37.490Z,3
2022-09-14T07:19:53.723Z,3
2022-09-14T07:21:09.956Z,3.5
2022-09-14T07:22:26.197Z,3.2
2022-09-14T07:23:42.438Z,3
2022-09-14T07:24:57.699Z,3.2
2022-09-14T07:26:13.933Z,3
2022-09-14T07:27:30.176Z,3
2022-09-14T07:28:46.404Z,3.2
2022-09-14T07:30:02.643Z,2.9
2022-09-14T07:31:18.897Z,3
2022-09-14T07:32:35.122Z,3.1
2022-09-14T07:33:51.372Z,3.4
2022-09-14T07:35:07.614Z,3.7
2022-09-14T07:36:23.840Z,3.4
2022-09-14T07:37:40.084Z,3.1
2022-09-14T07:38:56.310Z,3.7
2022-09-14T07:40:12.565Z,3.8
2022-09-14T07:41:27.818Z,3
2022-09-14T07:42:44.062Z,3.3
2022-09-14T07:44:00.300Z,3.1
2022-09-14T07:45:16.538Z,3.2
2022-09-14T07:46:32.756Z,2.8
2022-09-14T07:47:49.014Z,2.7
2022-09-14T07:49:05.242Z,3.2
2022-09-14T07:50:21.477Z,2.8
2022-09-14T07:51:37.714Z,2.4
2022-09-14T07:52:53.963Z,2.9
2022-09-14T07:54:10.203Z,2.8
2022-09-14T07:55:26.450Z,2.6
2022-09-14T07:56:42.679Z,2.6
2022-09-14T07:57:57.934Z,2.6
2022-09-14T07:59:14.182Z,2.8
2022-09-14T08:00:30.407Z,2.2
2022-09-14T08:01:46.657Z,2.3
2022-09-14T08:03:02.897Z,2.5
2022-09-14T08:04:19.121Z,2.9
2022-09-14T08:05:35.361Z,2.7
2022-09-14T08:06:51.598Z,2.4
2022-09-14T08:08:07.852Z,2.4
2022-09-14T08:09:24.079Z,2.5
2022-09-14T08:10:40.327Z,2.5
2022-09-14T08:11:56.546Z,3
2022-09-14T08:13:12.801Z,2.3
2022-09-14T08:14:28.050Z,2.9
2022-09-14T08:15:44.294Z,2.1
2022-09-14T08:17:00.526Z,2.6
2022-09-14T08:18:16.762Z,2.7
2022-09-14T08:19:33.012Z,2.8
2022-09-14T08:20:49.237Z,2.5
2022-09-14T08:22:05.478Z,2.1
2022-09-14T08:23:21.722Z,2.5
2022-09-14T08:24:37.950Z,2
2022-09-14T08:25:54.196Z,2.4
2022-09-14T08:27:10.433Z,2.3
2022-09-14T08:28:26.682Z,2
2022-09-14T08:29:42.905Z,2.4
2022-09-14T08:30:58.173Z,2.1
2022-09-14T08:32:14.406Z,2.4
2022-09-14T08:33:30.644Z,2.1
2022-09-14T08:34:46.881Z,2.1
2022-09-14T08:36:03.132Z,2.1
2022-09-14T08:37:19.356Z,2.1
2022-09-14T08:38:35.604Z,1.9
2022-09-14T08:39:51.842Z,2
2022-09-14T08:41:08.077Z,1.8
2022-09-14T08:42:24.329Z,1.9
2022-09-14T08:43:40.553Z,1.9
2022-09-14T08:44:56.796Z,1.8
2022-09-14T08:46:13.050Z,1.7
2022-09-14T08:47:28.291Z,1.6
2022-09-14T08:48:44.524Z,1.5
2022-09-14T08:50:00.771Z,1.5
2022-09-14T08:51:17.003Z,1.6
2022-09-14T08:52:33.244Z,1.3
2022-09-14T08:53:49.499Z,1.4
2022-09-14T08:55:05.737Z,1.7
2022-09-14T08:56:21.968Z,1.5
2022-09-14T08:57:38.195Z,1.7
2022-09-14T08:58:54.438Z,2.2
2022-09-14T09:00:10.686Z,1.6
2022-09-14T09:01:26.917Z,1.6
2022-09-14T09:02:43.000Z,1.8
2022-09-14T09:03:58.426Z,2
2022-09-14T09:05:14.653Z,2
2022-09-14T09:06:30.902Z,2.1
2022-09-14T09:07:47.127Z,1.7
2022-09-14T09:09:03.366Z,2.1
2022-09-14T09:10:19.610Z,1.9
2022-09-14T09:11:34.862Z,2.2
2022-09-14T09:12:51.119Z,1.9
2022-09-14T09:14:07.348Z,1.8
2022-09-14T09:15:23.575Z,1.9
2022-09-14T09:16:39.818Z,2
2022-09-14T09:17:56.051Z,1.9
2022-09-14T09:19:12.308Z,1.8
2022-09-14T09:20:28.542Z,2
2022-09-14T09:21:44.777Z,1.7
2022-09-14T09:23:01.011Z,1.8
2022-09-14T09:24:17.259Z,2
2022-09-14T09:25:33.493Z,2.2
2022-09-14T09:26:49.734Z,1.9
2022-09-14T09:28:04.984Z,1.9
2022-09-14T09:29:21.230Z,2.1
2022-09-14T09:30:37.458Z,2
2022-09-14T09:31:53.705Z,1.9
2022-09-14T09:33:09.947Z,1.8
2022-09-14T09:34:26.191Z,1.5
2022-09-14T09:35:42.417Z,1.9
2022-09-14T09:36:58.666Z,1.7
2022-09-14T09:38:14.908Z,1.8
2022-09-14T09:39:31.139Z,1.6
2022-09-14T09:40:47.369Z,1.5
2022-09-14T09:42:03.624Z,1.8
2022-09-14T09:43:19.843Z,1.5
2022-09-14T09:44:35.121Z,1.5
2022-09-14T09:45:51.351Z,1.8
2022-09-14T09:47:07.600Z,1.5
2022-09-14T09:48:23.815Z,1.6
2022-09-14T09:49:40.069Z,1.7
2022-09-14T09:50:56.304Z,1.6
2022-09-14T09:52:12.542Z,1.4
2022-09-14T09:53:28.777Z,1.8
2022-09-14T09:54:45.015Z,1.8
2022-09-14T09:56:01.258Z,1.5
2022-09-14T09:57:17.508Z,2.6
2022-09-14T09:58:33.733Z,2.2
2022-09-14T09:59:49.972Z,1.7
2022-09-14T10:01:05.234Z,2.1
2022-09-14T10:02:21.475Z,1.7
2022-09-14T10:03:37.712Z,2.1
2022-09-14T10:04:53.946Z,1.7
2022-09-14T10:06:10.197Z,1.9
2022-09-14T10:07:26.422Z,1.9
2022-09-14T10:08:42.658Z,1.7
2022-09-14T10:09:58.906Z,2.1
2022-09-14T10:11:15.144Z,1.4
2022-09-14T10:12:31.383Z,2.2
2022-09-14T10:13:47.616Z,2
2022-09-14T10:15:03.865Z,1.6
2022-09-14T10:16:20.102Z,1.6
2022-09-14T10:17:35.365Z,1.8
2022-09-14T10:18:51.603Z,1.7
2022-09-14T10:20:07.846Z,1.6
2022-09-14T10:21:24.070Z,2
2022-09-14T10:22:40.313Z,1.8
2022-09-14T10:23:56.551Z,1.8
2022-09-14T10:25:12.788Z,2.2
2022-09-14T10:26:29.024Z,1.4
2022-09-14T10:27:45.268Z,1.8
2022-09-14T10:29:01.511Z,1.7
2022-09-14T10:30:17.741Z,1.8
2022-09-14T10:31:33.984Z,1.5
2022-09-14T10:32:50.229Z,2.5
2022-09-14T10:34:05.481Z,1.7
2022-09-14T10:35:21.725Z,1.5
2022-09-14T10:36:37.958Z,1.5
2022-09-14T10:37:54.197Z,1.6
2022-09-14T10:39:10.449Z,1.9
2022-09-14T10:40:26.677Z,1.5
2022-09-14T10:41:42.927Z,1.3
2022-09-14T10:42:59.168Z,1.3
2022-09-14T10:44:15.390Z,1.3
2022-09-14T10:45:31.643Z,1.5
2022-09-14T10:46:47.868Z,1.4
2022-09-14T10:48:04.116Z,1.9
2022-09-14T10:49:20.350Z,1.9
2022-09-14T10:50:35.620Z,1.3
2022-09-14T10:51:51.844Z,1.8
2022-09-14T10:53:08.098Z,1.6
2022-09-14T10:54:24.322Z,1.7
2022-09-14T10:55:40.577Z,1.9
2022-09-14T10:56:56.804Z,1.8
2022-09-14T10:58:13.048Z,1.5
2022-09-14T10:59:29.291Z,1.7
2022-09-14T11:00:45.524Z,2.3
2022-09-14T11:02:01.762Z,1.6
2022-09-14T11:03:18.003Z,1.7
2022-09-14T11:04:34.241Z,1.7
2022-09-14T11:05:50.482Z,1.7
2022-09-14T11:07:05.724Z,1.8
2022-09-14T11:08:21.962Z,2
2022-09-14T11:09:38.210Z,1.7
2022-09-14T11:10:54.444Z,1.5
2022-09-14T11:12:10.687Z,2
2022-09-14T11:13:26.934Z,1.6
2022-09-14T11:14:43.160Z,1.6
2022-09-14T11:15:59.407Z,1.7
2022-09-14T11:17:15.643Z,1.7
2022-09-14T11:18:31.880Z,2
2022-09-14T11:19:48.121Z,2.2
2022-09-14T11:21:04.370Z,1.9
2022-09-14T11:22:20.598Z,1.7
2022-09-14T11:23:35.857Z,2
2022-09-14T11:24:52.099Z,1.9
2022-09-14T11:26:08.327Z,2.3
2022-09-14T11:27:24.562Z,2.2
2022-09-14T11:28:40.807Z,1.8
2022-09-14T11:29:57.043Z,1.8
2022-09-14T11:31:13.284Z,1.9
2022-09-14T11:32:29.532Z,2
2022-09-14T11:33:45.774Z,1.9
2022-09-14T11:35:01.999Z,2
2022-09-14T11:36:18.243Z,2.2
2022-09-14T11:37:34.477Z,1.9
2022-09-14T11:38:50.722Z,2.4
2022-09-14T11:40:05.981Z,2
2022-09-14T11:41:22.209Z,2.1
2022-09-14T11:42:38.452Z,2.1
2022-09-14T11:43:54.695Z,1.8
2022-09-14T11:45:10.923Z,1.9
2022-09-14T11:46:27.172Z,2
2022-09-14T11:47:43.403Z,2.1
2022-09-14T11:48:59.647Z,2.3
2022-09-14T11:50:15.896Z,2.2
2022-09-14T11:51:32.122Z,2.3
2022-09-14T11:52:48.376Z,2.2
2022-09-14T11:54:04.597Z,2.2
2022-09-14T11:55:20.841Z,2.6
2022-09-14T11:56:36.101Z,2.2
2022-09-14T11:57:52.336Z,2.3
2022-09-14T11:59:08.574Z,2.4
2022-09-14T12:00:24.817Z,2.6
2022-09-14T12:01:41.052Z,2
2022-09-14T12:02:57.289Z,2.6
2022-09-14T12:04:13.524Z,2.4
2022-09-14T12:05:29.774Z,2.4
2022-09-14T12:06:46.009Z,2.6
2022-09-14T12:08:02.255Z,2.6
2022-09-14T12:09:18.482Z,2.7
2022-09-14T12:10:34.727Z,2.4
2022-09-14T12:11:50.964Z,3.1
2022-09-14T12:13:06.210Z,2.6
2022-09-14T12:14:22.452Z,2.7
2022-09-14T12:15:38.688Z,2.7
2022-09-14T12:16:54.931Z,2.9
2022-09-14T12:18:11.176Z,3.3
2022-09-14T12:19:27.414Z,2.8
2022-09-14T12:20:43.653Z,2.5
2022-09-14T12:21:59.893Z,3.8
2022-09-14T12:23:16.129Z,3.2
2022-09-14T12:24:32.372Z,3.6
2022-09-14T12:25:48.602Z,2.6
2022-09-14T12:27:04.840Z,2.8
2022-09-14T12:28:21.078Z,2.8
2022-09-14T12:29:36.344Z,2.6
2022-09-14T12:30:52.588Z,2.7
2022-09-14T12:32:08.812Z,2.4
2022-09-14T12:33:25.055Z,2.5
2022-09-14T12:34:41.294Z,2.6
2022-09-14T12:35:57.533Z,3.1
2022-09-14T12:37:13.771Z,2.6
2022-09-14T12:38:30.021Z,2.6
2022-09-14T12:39:46.262Z,2.7
2022-09-14T12:41:02.490Z,3
2022-09-14T12:42:18.739Z,2.7
2022-09-14T12:43:34.965Z,3.3
2022-09-14T12:44:51.204Z,3.1
2022-09-14T12:46:06.470Z,3
2022-09-14T12:47:22.694Z,2.7
2022-09-14T12:48:38.944Z,3
2022-09-14T12:49:55.190Z,2.6
2022-09-14T12:51:11.414Z,3
2022-09-14T12:52:27.660Z,2.6
2022-09-14T12:53:43.904Z,2.7
2022-09-14T12:55:00.134Z,2.3
2022-09-14T12:56:16.371Z,2.7
2022-09-14T12:57:32.611Z,2.4
2022-09-14T12:58:48.844Z,2.4
2022-09-14T13:00:05.096Z,2.3
2022-09-14T13:01:21.326Z,2.2
2022-09-14T13:02:36.579Z,2.1
2022-09-14T13:03:52.820Z,2.2
2022-09-14T13:05:09.072Z,2.6
2022-09-14T13:06:25.308Z,2.4
2022-09-14T13:07:41.552Z,2.3
2022-09-14T13:08:57.774Z,2.2
2022-09-14T13:10:14.022Z,2.7
2022-09-14T13:11:30.253Z,2.2
2022-09-14T13:12:46.505Z,2.2
2022-09-14T13:14:02.741Z,2.6
2022-09-14T13:15:18.980Z,2.9
2022-09-14T13:16:35.207Z,2.6
2022-09-14T13:17:51.446Z,2.6
2022-09-14T13:19:06.700Z,2.4
2022-09-14T13:20:22.952Z,2.8
2022-09-14T13:21:39.193Z,2.6
2022-09-14T13:22:55.430Z,2.9
2022-09-14T13:24:11.673Z,2.7
2022-09-14T13:25:27.902Z,2.6
2022-09-14T13:26:43.156Z,2.9
2022-09-14T13:27:59.408Z,2.7
2022-09-14T13:29:15.640Z,2.6
2022-09-14T13:30:31.871Z,2.5
2022-09-14T13:31:48.116Z,2.7
2022-09-14T13:33:04.353Z,2.8
2022-09-14T13:34:20.601Z,2.8
2022-09-14T13:35:36.842Z,2.6
2022-09-14T13:36:53.076Z,3
2022-09-14T13:38:09.313Z,2.3
2022-09-14T13:39:25.543Z,2.7
2022-09-14T13:40:41.789Z,3.2
2022-09-14T13:41:58.040Z,2.6
2022-09-14T13:43:13.278Z,2.8
2022-09-14T13:44:29.526Z,3.1
2022-09-14T13:45:45.759Z,2.8
2022-09-14T13:47:02.010Z,3.2
2022-09-14T13:48:18.232Z,2.8
2022-09-14T13:49:34.481Z,3
2022-09-14T13:50:50.710Z,2.8
2022-09-14T13:52:06.957Z,3.1
2022-09-14T13:53:23.195Z,3.7
2022-09-14T13:54:39.000Z,3.1
2022-09-14T13:55:55.675Z,3.2
2022-09-14T13:57:11.912Z,3.1
2022-09-14T13:58:28.150Z,3.4
2022-09-14T13:59:43.416Z,3.2
2022-09-14T14:00:59.652Z,3.4
2022-09-14T14:02:15.891Z,3.3
2022-09-14T14:03:32.130Z,3.5
2022-09-14T14:04:48.369Z,3.3
2022-09-14T14:06:04.599Z,3.1
2022-09-14T14:07:20.841Z,3.5
2022-09-14T14:08:37.085Z,3.3
2022-09-14T14:09:53.324Z,3.2
2022-09-14T14:11:09.553Z,3.1
2022-09-14T14:12:25.809Z,3.2
2022-09-14T14:13:42.044Z,3.4
2022-09-14T14:14:58.000Z,3.4
2022-09-14T14:16:13.536Z,3.4
2022-09-14T14:17:29.765Z,3.3
2022-09-14T14:18:46.006Z,3.5
2022-09-14T14:20:02.252Z,3.4
2022-09-14T14:21:18.493Z,3.6
2022-09-14T14:22:34.721Z,3.3
2022-09-14T14:23:50.975Z,3.6
2022-09-14T14:25:07.211Z,3.6
2022-09-14T14:26:23.000Z,3.4
2022-09-14T14:27:39.684Z,3.5
2022-09-14T14:28:55.916Z,3.4
2022-09-14T14:30:12.153Z,3.2
2022-09-14T14:31:28.402Z,3.5
2022-09-14T14:32:43.647Z,3.5
2022-09-14T14:33:59.891Z,3.7
2022-09-14T14:35:16.125Z,3.6
2022-09-14T14:36:32.378Z,3.6
2022-09-14T14:37:48.602Z,3.9
2022-09-14T14:39:04.858Z,3.4
2022-09-14T14:40:21.097Z,3.7
2022-09-14T14:41:37.323Z,3.8
2022-09-14T14:42:53.562Z,3.7
2022-09-14T14:44:09.808Z,3.3
2022-09-14T14:45:26.040Z,4
2022-09-14T14:46:42.281Z,3.6
2022-09-14T14:47:58.527Z,3.1
2022-09-14T14:49:13.770Z,3.5
2022-09-14T14:50:30.011Z,3.5
2022-09-14T14:51:46.261Z,3.4
2022-09-14T14:53:02.498Z,3.4
2022-09-14T14:54:18.740Z,3
2022-09-14T14:55:34.966Z,3.4
2022-09-14T14:56:51.207Z,3.3
2022-09-14T14:58:07.445Z,3.1
2022-09-14T14:59:23.692Z,3.2
2022-09-14T15:00:39.922Z,3.2
2022-09-14T15:01:56.159Z,3.3
2022-09-14T15:03:12.411Z,3.1
2022-09-14T15:04:28.640Z,3.1
2022-09-14T15:05:43.896Z,3
2022-09-14T15:07:00.144Z,3.6
2022-09-14T15:08:16.370Z,3.4
2022-09-14T15:09:32.614Z,3.1
2022-09-14T15:10:48.847Z,3.1
2022-09-14T15:12:05.091Z,3.3
2022-09-14T15:13:21.344Z,3.3
2022-09-14T15:14:37.579Z,3.7
2022-09-14T15:15:53.816Z,3.6
2022-09-14T15:17:10.057Z,4
2022-09-14T15:18:26.285Z,3.5
2022-09-14T15:19:42.528Z,3.8
2022-09-14T15:20:58.772Z,3
2022-09-14T15:22:14.020Z,3.4
2022-09-14T15:23:30.258Z,3.3
2022-09-14T15:24:46.493Z,3.4
2022-09-14T15:26:02.739Z,3.6
2022-09-14T15:27:18.977Z,3.1
2022-09-14T15:28:35.219Z,3.4
2022-09-14T15:29:51.454Z,3.4
2022-09-14T15:31:07.694Z,3.2
2022-09-14T15:32:23.938Z,3.3
2022-09-14T15:33:40.170Z,2.9
2022-09-14T15:34:56.411Z,3.3
2022-09-14T15:36:12.641Z,2.9
2022-09-14T15:37:28.897Z,3
2022-09-14T15:38:44.144Z,3.2
2022-09-14T15:40:00.378Z,3
2022-09-14T15:41:16.621Z,3.4
2022-09-14T15:42:32.856Z,3.2
2022-09-14T15:43:49.109Z,3.1
2022-09-14T15:45:05.336Z,3.1
2022-09-14T15:46:21.568Z,3.2
2022-09-14T15:47:37.813Z,3.2
2022-09-14T15:48:54.048Z,3.4
2022-09-14T15:50:10.284Z,2.9
2022-09-14T15:51:26.541Z,2.9
2022-09-14T15:52:42.768Z,3.5
2022-09-14T15:53:59.004Z,3.1
2022-09-14T15:55:14.261Z,3.4
2022-09-14T15:56:30.495Z,3.3
2022-09-14T15:57:46.743Z,3.2
2022-09-14T15:59:02.988Z,3.5
2022-09-14T16:00:19.229Z,3.4
2022-09-14T16:01:35.461Z,3.5
2022-09-14T16:02:51.689Z,3.6
2022-09-14T16:04:07.937Z,3.3
2022-09-14T16:05:24.181Z,3.7
2022-09-14T16:06:40.415Z,3.8
2022-09-14T16:07:56.653Z,3.6
2022-09-14T16:09:12.895Z,3.4
2022-09-14T16:10:29.124Z,3.4
2022-09-14T16:11:44.384Z,3.7
2022-09-14T16:13:00.626Z,3.6
2022-09-14T16:14:16.861Z,3.6
2022-09-14T16:15:33.111Z,3.3
2022-09-14T16:16:49.331Z,3.7
2022-09-14T16:18:05.571Z,3.4
2022-09-14T16:19:21.817Z,3.4
2022-09-14T16:20:38.058Z,3.4
2022-09-14T16:21:54.296Z,3.7
2022-09-14T16:23:10.000Z,3.7
2022-09-14T16:24:26.765Z,3.6
2022-09-14T16:25:43.006Z,4
2022-09-14T16:26:59.242Z,3.9
2022-09-14T16:28:14.499Z,3.8
2022-09-14T16:29:30.744Z,3.6
2022-09-14T16:30:46.987Z,3.6
2022-09-14T16:32:03.218Z,4
2022-09-14T16:33:19.461Z,3.6
2022-09-14T16:34:35.704Z,3.4
2022-09-14T16:35:51.934Z,3.5
2022-09-14T16:37:08.177Z,3.6
2022-09-14T16:38:24.416Z,3.5
2022-09-14T16:39:40.653Z,3.1
2022-09-14T16:40:56.886Z,3.7
2022-09-14T16:42:13.128Z,3.7
2022-09-14T16:43:29.373Z,3.5
2022-09-14T16:44:44.626Z,3.4
2022-09-14T16:46:00.871Z,3.8
2022-09-14T16:47:17.109Z,3.4
2022-09-14T16:48:33.334Z,3.5
2022-09-14T16:49:49.587Z,3.7
2022-09-14T16:51:05.819Z,3.6
2022-09-14T16:52:22.054Z,3.6
2022-09-14T16:53:38.301Z,3.7
2022-09-14T16:54:54.540Z,3.6
2022-09-14T16:56:10.785Z,3.5
2022-09-14T16:57:27.011Z,3.5
2022-09-14T16:58:43.247Z,3.5
2022-09-14T16:59:59.492Z,3.7
2022-09-14T17:01:14.738Z,3.8
2022-09-14T17:02:30.985Z,3.6
2022-09-14T17:03:47.222Z,3.4
2022-09-14T17:05:03.460Z,3.7
2022-09-14T17:06:19.701Z,3.3
2022-09-14T17:07:35.936Z,4.2
2022-09-14T17:08:52.175Z,3.5
2022-09-14T17:10:08.417Z,3.4
2022-09-14T17:11:24.649Z,4
2022-09-14T17:12:40.891Z,3.6
2022-09-14T17:13:57.132Z,3.6
2022-09-14T17:15:13.378Z,3.6
2022-09-14T17:16:29.613Z,3.7
2022-09-14T17:17:44.876Z,3.8
2022-09-14T17:19:01.114Z,3.3
2022-09-14T17:20:17.357Z,3.6
2022-09-14T17:21:33.590Z,3.8
2022-09-14T17:22:49.817Z,3.3
2022-09-14T17:24:06.057Z,3.3
2022-09-14T17:25:22.301Z,3.5
2022-09-14T17:26:38.539Z,3.2
2022-09-14T17:27:54.780Z,3.5
2022-09-14T17:29:11.025Z,3.5
2022-09-14T17:30:27.256Z,3.4
2022-09-14T17:31:43.495Z,4
2022-09-14T17:32:59.745Z,3.8
2022-09-14T17:34:14.990Z,3.8
2022-09-14T17:35:31.228Z,3.7